Details for Thomas Cook Airlines at EGPF




Go Back


Latest METAR
Local Time

EGPF 232320Z AUTO 07008KT 9999 FEW029 01/M03 Q1021

23/02/2018, 23:40:13

Description
Results
Thomas Cook Airlines Logo
Number of Pilots based at EGPF
2 Pilots Based here
Number of Thomas Cook Airlines Flights Departed from EGPF
0 Flights Departed
Number of Thomas Cook Airlines Flights Arrived at EGPF
0 Flights Arrived
Number of Thomas Cook Airlines Schedules Departing from EGPF
13 Schedules
Number of Thomas Cook Airlines Schedules Arriving at EGPF
14 Schedules
Number of Thomas Cook Airlines Schedules Departing from EGPF availible today
3 Schedules Today
Number of Thomas Cook Airlines Schedules Arriving at EGPF availible today
3 Schedules Today
Average Landing Rate at EGPF
-212 fpm
Thomas Cook Airlines Average Landing Rate at EGPF
0 fpm
Total Fuel Purchased at EGPF by Thomas Cook Airlines
0.00 kgs / 0.00 lbs

Pilots Based at EGPF


Pilot ID
Pilot Name
Pilot Rank
No. of Flights
No. of Flying Hours
Renaat Meeuws
32
54.26
Thomas Bell
305
516.22
Content